Terminal Aerodrome Forecast
Issued by NWS

Home | Current Version | Previous Version | Text Only | Print | Product List | Glossary On
Versions: 1 2 3 4 5 6 7 8 9 10 11 12 13 14 15 16 17 18 19 20 21 22 23 24 25 26 27 28 29 30 31 32 33 34 35 36 37 38 39 40 41
000
FTUS45 KCYS 252320
TAFLAR
TAF
KLAR 252320Z 2600/2624 VRB06KT P6SM BKN090
     FM260400 31009KT 3SM -SNRA BR OVC035
     FM260900 32010KT P6SM VCSH BKN035
     FM261500 34010KT P6SM VCSH OVC050
     FM261800 34014G25KT P6SM BKN080=

USA.gov is the U.S. government's official web portal to all federal, state and local government web resources and services.